Time;durP1;ratioP1;P1;durP2;ratioP2;P2;SDS_P1;SDS_P2;PMS_P1;PMS_P2;Temp;Humidity;BMP_temperature;BMP_pressure;BME280_temperature;BME280_humidity;BME280_pressure;Samples;Min_cycle;Max_cycle;Signal;HPM_P1;HPM_P2
2021/06/01 00:01:20;;;;;;;6.07;2.93;;;;;;;;;;5043692;28;20017;-71
2021/06/01 00:03:46;;;;;;;6.47;2.83;;;;;;;;;;5045888;28;20029;-71
2021/06/01 00:06:11;;;;;;;7.37;2.80;;;;;;;;;;5042703;28;20025;-71
2021/06/01 00:08:37;;;;;;;7.20;2.80;;;;;;;;;;5048999;28;20493;-71
2021/06/01 00:11:03;;;;;;;5.23;2.40;;;;;;;;;;5048478;28;20028;-71
2021/06/01 00:13:29;;;;;;;4.80;2.43;;;;;;;;;;5047771;28;20020;-71
2021/06/01 00:15:54;;;;;;;6.40;2.73;;;;;;;;;;5055045;28;20028;-71
2021/06/01 00:18:19;;;;;;;6.27;2.83;;;;;;;;;;5048456;28;20040;-71
2021/06/01 00:20:45;;;;;;;11.90;3.67;;;;;;;;;;5049317;28;20031;-71
2021/06/01 00:23:10;;;;;;;6.53;2.87;;;;;;;;;;5049427;28;20385;-71
2021/06/01 00:25:35;;;;;;;6.93;2.97;;;;;;;;;;5043721;28;20021;-71
2021/06/01 00:28:01;;;;;;;5.73;2.73;;;;;;;;;;5049871;28;20083;-71
2021/06/01 00:30:26;;;;;;;6.60;2.77;;;;;;;;;;5050717;28;20033;-71
2021/06/01 00:32:52;;;;;;;5.03;2.40;;;;;;;;;;5048367;28;20096;-71
2021/06/01 00:35:17;;;;;;;6.03;2.93;;;;;;;;;;5043107;28;20023;-71
2021/06/01 00:37:42;;;;;;;6.43;3.30;;;;;;;;;;5052193;28;20024;-71
2021/06/01 00:40:08;;;;;;;6.00;2.87;;;;;;;;;;5051787;28;20029;-71
2021/06/01 00:42:33;;;;;;;6.90;3.30;;;;;;;;;;5037183;28;20394;-71
2021/06/01 00:44:59;;;;;;;6.63;2.77;;;;;;;;;;5027756;28;20030;-71
2021/06/01 00:47:24;;;;;;;7.80;3.00;;;;;;;;;;5026595;28;20101;-71
2021/06/01 00:49:49;;;;;;;6.47;3.03;;;;;;;;;;5023432;28;20022;-71
2021/06/01 00:52:15;;;;;;;9.07;3.10;;;;;;;;;;5025961;28;20080;-71
2021/06/01 00:54:40;;;;;;;7.37;3.27;;;;;;;;;;5029482;28;20036;-71
2021/06/01 00:57:06;;;;;;;7.63;3.33;;;;;;;;;;5026773;28;20056;-71
2021/06/01 00:59:32;;;;;;;9.30;4.07;;;;;;;;;;5022026;28;20028;-71
2021/06/01 01:01:57;;;;;;;6.87;3.40;;;;;;;;;;5048713;22;20896;-69
2021/06/01 01:04:24;;;;;;;9.20;3.40;;;;;;;;;;5024067;28;20017;-66
2021/06/01 01:06:59;;;;;;;7.77;2.83;;;;;;;;;;5036555;28;20037;-66
2021/06/01 01:09:26;;;;;;;10.00;3.53;;;;;;;;;;5030359;28;20049;-66
2021/06/01 01:12:10;;;;;;;9.77;2.97;;;;;;;;;;5029816;28;20026;-66
2021/06/01 01:14:42;;;;;;;7.43;3.43;;;;;;;;;;5039381;28;20392;-66
2021/06/01 01:17:10;;;;;;;6.97;3.35;;;;;;;;;;5031838;28;20068;-66
2021/06/01 01:19:56;;;;;;;8.83;2.90;;;;;;;;;;5037468;28;20029;-66
2021/06/01 01:22:21;;;;;;;6.33;2.93;;;;;;;;;;4946445;28;20493;-67
2021/06/01 01:24:59;;;;;;;10.67;3.13;;;;;;;;;;4936811;28;20036;-66
2021/06/01 01:27:48;;;;;;;6.10;2.83;;;;;;;;;;4948538;28;20051;-66
2021/06/01 01:30:15;;;;;;;6.93;3.10;;;;;;;;;;4941230;29;20411;-66
2021/06/01 01:33:01;;;;;;;10.23;3.47;;;;;;;;;;4947780;28;20515;-66
2021/06/01 01:35:28;;;;;;;6.30;3.07;;;;;;;;;;4889428;29;20429;-66
2021/06/01 01:37:54;;;;;;;9.47;2.93;;;;;;;;;;4895230;29;20064;-66
2021/06/01 01:40:23;;;;;;;8.87;3.07;;;;;;;;;;4895941;29;20064;-66
2021/06/01 01:42:52;;;;;;;11.03;3.50;;;;;;;;;;4898429;29;20370;-66
2021/06/01 01:45:21;;;;;;;8.37;3.33;;;;;;;;;;4885064;29;20071;-66
2021/06/01 01:50:28;;;;;;;9.17;3.17;;;;;;;;;;4893781;29;20533;-66
2021/06/01 01:52:53;;;;;;;8.73;3.17;;;;;;;;;;4894196;29;20253;-66
2021/06/01 01:55:19;;;;;;;7.47;3.17;;;;;;;;;;4887045;29;20174;-66
2021/06/01 01:57:47;;;;;;;7.80;3.43;;;;;;;;;;4910510;29;20060;-66
2021/06/01 02:00:13;;;;;;;9.70;3.23;;;;;;;;;;4927074;29;20118;-66
2021/06/01 02:02:39;;;;;;;8.13;3.60;;;;;;;;;;4932878;28;20044;-66
2021/06/01 02:05:05;;;;;;;8.37;3.07;;;;;;;;;;4939340;29;20507;-66
2021/06/01 02:07:31;;;;;;;6.80;3.30;;;;;;;;;;4942846;29;20020;-67
2021/06/01 02:09:57;;;;;;;9.20;3.47;;;;;;;;;;4943505;29;20039;-67
2021/06/01 02:12:23;;;;;;;7.97;3.80;;;;;;;;;;4977114;28;20413;-66
2021/06/01 02:14:48;;;;;;;7.50;3.43;;;;;;;;;;5028562;28;20057;-67
2021/06/01 02:17:13;;;;;;;7.90;3.23;;;;;;;;;;5032004;28;20033;-66
2021/06/01 02:19:39;;;;;;;7.33;3.17;;;;;;;;;;5018365;28;20048;-66
2021/06/01 02:25:04;;;;;;;7.33;3.30;;;;;;;;;;5029774;28;20018;-67
2021/06/01 02:27:34;;;;;;;8.50;3.08;;;;;;;;;;5032772;28;20029;-67
2021/06/01 02:30:07;;;;;;;8.20;3.33;;;;;;;;;;5028411;28;20474;-66
2021/06/01 02:32:39;;;;;;;8.00;3.13;;;;;;;;;;5029275;28;20037;-67
2021/06/01 02:35:07;;;;;;;9.88;3.75;;;;;;;;;;5025879;28;20049;-66
2021/06/01 02:37:33;;;;;;;8.67;3.83;;;;;;;;;;5031853;28;20541;-66
2021/06/01 02:40:00;;;;;;;8.03;3.37;;;;;;;;;;5032601;28;20024;-66
2021/06/01 02:42:26;;;;;;;7.37;3.30;;;;;;;;;;5036582;28;20036;-67
2021/06/01 02:44:51;;;;;;;7.30;3.60;;;;;;;;;;5045407;28;20421;-66
2021/06/01 02:47:17;;;;;;;9.80;3.50;;;;;;;;;;5028624;28;20129;-66
2021/06/01 02:49:43;;;;;;;6.90;3.27;;;;;;;;;;5028832;28;20029;-66
2021/06/01 02:52:08;;;;;;;8.80;3.83;;;;;;;;;;5017642;28;20513;-66
2021/06/01 02:54:33;;;;;;;9.83;3.23;;;;;;;;;;5041174;28;20040;-66
2021/06/01 02:56:59;;;;;;;8.30;3.40;;;;;;;;;;5026137;28;20033;-67
2021/06/01 02:59:25;;;;;;;9.70;3.10;;;;;;;;;;5039900;28;20389;-66
2021/06/01 03:01:50;;;;;;;8.57;3.23;;;;;;;;;;5039242;28;20112;-67
2021/06/01 03:04:16;;;;;;;6.73;2.97;;;;;;;;;;5031975;28;20112;-67
2021/06/01 03:06:42;;;;;;;8.63;3.13;;;;;;;;;;5027037;28;20076;-67
2021/06/01 03:09:07;;;;;;;7.60;3.10;;;;;;;;;;5032801;28;20108;-67
2021/06/01 03:11:33;;;;;;;8.60;3.20;;;;;;;;;;5039340;28;20481;-66
2021/06/01 03:13:58;;;;;;;7.97;3.20;;;;;;;;;;5028235;28;20017;-66
2021/06/01 03:16:24;;;;;;;7.37;3.53;;;;;;;;;;5023947;28;20063;-66
2021/06/01 03:18:49;;;;;;;8.30;3.40;;;;;;;;;;5030977;28;20083;-66
2021/06/01 03:21:15;;;;;;;8.47;3.60;;;;;;;;;;5020291;28;20065;-66
2021/06/01 03:23:40;;;;;;;8.27;3.93;;;;;;;;;;5022750;28;20045;-66
2021/06/01 03:26:06;;;;;;;8.33;3.23;;;;;;;;;;5031588;28;20033;-66
2021/06/01 03:28:31;;;;;;;9.10;4.03;;;;;;;;;;5027245;28;20382;-67
2021/06/01 03:30:57;;;;;;;8.00;3.40;;;;;;;;;;5025615;28;20369;-66
2021/06/01 03:33:22;;;;;;;9.17;3.50;;;;;;;;;;5029051;28;20021;-66
2021/06/01 03:35:48;;;;;;;7.57;3.97;;;;;;;;;;5023741;28;20537;-67
2021/06/01 03:38:14;;;;;;;10.63;3.90;;;;;;;;;;5029654;28;20022;-67
2021/06/01 03:40:40;;;;;;;10.20;3.80;;;;;;;;;;5037033;28;20092;-67
2021/06/01 03:43:06;;;;;;;6.93;3.33;;;;;;;;;;5018162;28;20022;-67
2021/06/01 03:45:31;;;;;;;8.77;3.63;;;;;;;;;;5028345;28;20369;-67
2021/06/01 03:47:57;;;;;;;10.80;4.00;;;;;;;;;;5025609;28;20506;-67
2021/06/01 03:50:22;;;;;;;10.93;4.03;;;;;;;;;;5031124;28;20039;-67
2021/06/01 03:52:48;;;;;;;10.83;3.80;;;;;;;;;;5030806;28;20096;-67
2021/06/01 03:55:14;;;;;;;8.37;3.80;;;;;;;;;;5033199;28;20091;-67
2021/06/01 03:57:39;;;;;;;7.80;3.40;;;;;;;;;;5028027;28;20026;-67
2021/06/01 04:00:09;;;;;;;7.30;3.50;;;;;;;;;;5020571;28;20032;-67
2021/06/01 04:02:34;;;;;;;8.50;3.90;;;;;;;;;;5035317;28;20075;-67
2021/06/01 04:05:00;;;;;;;7.27;3.60;;;;;;;;;;5031915;28;20041;-67
2021/06/01 04:07:25;;;;;;;9.33;3.67;;;;;;;;;;5037471;28;20430;-67
2021/06/01 04:09:50;;;;;;;7.63;3.37;;;;;;;;;;5032049;28;20021;-68
2021/06/01 04:12:16;;;;;;;7.40;3.17;;;;;;;;;;5025472;28;20052;-69
2021/06/01 04:14:41;;;;;;;7.50;3.30;;;;;;;;;;5024775;28;20028;-69
2021/06/01 04:17:06;;;;;;;6.40;3.10;;;;;;;;;;5023229;28;20482;-69
2021/06/01 04:19:32;;;;;;;7.30;3.00;;;;;;;;;;5045118;28;20021;-69
2021/06/01 04:21:58;;;;;;;5.53;2.80;;;;;;;;;;5025755;28;20021;-69
2021/06/01 04:24:27;;;;;;;7.57;2.83;;;;;;;;;;5020730;28;20021;-69
2021/06/01 04:26:53;;;;;;;7.20;2.77;;;;;;;;;;5032125;28;20029;-69
2021/06/01 04:29:18;;;;;;;8.27;2.53;;;;;;;;;;5028437;28;20064;-70
2021/06/01 04:31:44;;;;;;;7.07;2.97;;;;;;;;;;5028133;28;20470;-70
2021/06/01 04:34:09;;;;;;;6.33;2.40;;;;;;;;;;5028713;28;20076;-71
2021/06/01 04:36:34;;;;;;;5.73;2.70;;;;;;;;;;5036260;28;20017;-71
2021/06/01 04:39:00;;;;;;;5.10;2.43;;;;;;;;;;5036388;28;20071;-70
2021/06/01 04:41:25;;;;;;;7.23;2.53;;;;;;;;;;5027369;28;20018;-70
2021/06/01 04:43:50;;;;;;;9.50;2.60;;;;;;;;;;5027434;28;20029;-71
2021/06/01 04:46:16;;;;;;;7.13;2.80;;;;;;;;;;5028020;28;20025;-70
2021/06/01 04:48:41;;;;;;;5.53;2.67;;;;;;;;;;5028310;28;20032;-70
2021/06/01 04:51:16;;;;;;;8.20;2.90;;;;;;;;;;5029070;28;20044;-71
2021/06/01 04:53:43;;;;;;;5.33;2.83;;;;;;;;;;5029149;28;20028;-71
2021/06/01 04:56:08;;;;;;;5.37;2.70;;;;;;;;;;5028551;28;20095;-72
2021/06/01 04:58:33;;;;;;;5.93;2.50;;;;;;;;;;5022180;28;20033;-71
2021/06/01 05:00:59;;;;;;;8.80;2.83;;;;;;;;;;5022694;28;20029;-71
2021/06/01 05:03:24;;;;;;;4.90;2.50;;;;;;;;;;4987149;28;1203673;-70
2021/06/01 05:05:49;;;;;;;8.57;2.67;;;;;;;;;;5017162;28;20397;-71
2021/06/01 05:08:15;;;;;;;7.43;2.73;;;;;;;;;;5021200;28;20035;-71
2021/06/01 05:10:40;;;;;;;6.67;2.97;;;;;;;;;;5031016;28;20037;-71
2021/06/01 05:13:05;;;;;;;6.20;2.70;;;;;;;;;;5035413;28;20227;-71
2021/06/01 05:15:31;;;;;;;6.20;2.95;;;;;;;;;;5031796;28;21024;-71
2021/06/01 05:17:57;;;;;;;8.88;3.03;;;;;;;;;;5026349;28;20038;-71
2021/06/01 05:20:23;;;;;;;5.32;3.10;;;;;;;;;;5037889;28;20024;-72
2021/06/01 05:22:48;;;;;;;6.05;2.90;;;;;;;;;;5037384;28;20030;-72
2021/06/01 05:25:13;;;;;;;7.30;2.88;;;;;;;;;;5027390;28;20021;-71
2021/06/01 05:27:39;;;;;;;8.65;3.17;;;;;;;;;;5028031;28;20026;-72
2021/06/01 05:30:06;;;;;;;6.50;3.38;;;;;;;;;;5035580;28;20021;-72
2021/06/01 05:35:28;;;;;;;7.25;2.80;;;;;;;;;;4981729;28;20041;-72
2021/06/01 05:37:53;;;;;;;7.28;3.30;;;;;;;;;;5031272;28;20014;-72
2021/06/01 05:40:19;;;;;;;8.02;3.47;;;;;;;;;;5027217;28;20036;-72
2021/06/01 05:42:44;;;;;;;7.93;3.50;;;;;;;;;;5028773;28;20095;-73
2021/06/01 05:45:09;;;;;;;8.10;3.47;;;;;;;;;;5050088;28;20021;-74
2021/06/01 05:47:35;;;;;;;6.05;3.45;;;;;;;;;;5047132;28;20017;-74
2021/06/01 05:50:04;;;;;;;7.00;3.50;;;;;;;;;;5035939;28;20087;-75
2021/06/01 05:52:29;;;;;;;7.07;3.50;;;;;;;;;;5025619;28;20030;-75
2021/06/01 05:54:55;;;;;;;11.20;3.25;;;;;;;;;;5029310;28;20084;-75
2021/06/01 05:57:20;;;;;;;6.78;3.13;;;;;;;;;;5024585;28;20026;-76
2021/06/01 05:59:46;;;;;;;9.93;3.08;;;;;;;;;;5046439;28;20083;-75
2021/06/01 06:02:14;;;;;;;7.75;3.58;;;;;;;;;;5030900;28;20484;-76
2021/06/01 06:04:40;;;;;;;10.45;3.75;;;;;;;;;;5034219;28;20064;-75
2021/06/01 06:07:05;;;;;;;7.30;3.30;;;;;;;;;;5030704;28;20437;-75
2021/06/01 06:09:30;;;;;;;5.40;3.30;;;;;;;;;;5030788;28;20449;-76
2021/06/01 06:11:57;;;;;;;6.20;3.20;;;;;;;;;;5035443;28;20372;-74
2021/06/01 06:14:23;;;;;;;8.23;3.10;;;;;;;;;;5036481;28;20025;-75
2021/06/01 06:16:54;;;;;;;9.35;3.15;;;;;;;;;;5034518;28;20105;-75
2021/06/01 06:19:19;;;;;;;9.32;3.28;;;;;;;;;;5030346;28;20025;-75
2021/06/01 06:21:44;;;;;;;10.38;3.00;;;;;;;;;;5033843;28;20621;-76
2021/06/01 06:24:10;;;;;;;6.65;3.25;;;;;;;;;;5016815;28;20475;-75
2021/06/01 06:26:35;;;;;;;10.18;3.50;;;;;;;;;;5025105;28;20025;-76
2021/06/01 06:29:00;;;;;;;8.02;3.30;;;;;;;;;;5029156;28;20379;-76
2021/06/01 06:31:26;;;;;;;6.10;3.42;;;;;;;;;;5042200;28;20482;-76
2021/06/01 06:33:51;;;;;;;8.88;3.67;;;;;;;;;;5052888;28;20033;-75
2021/06/01 06:36:16;;;;;;;7.47;3.70;;;;;;;;;;5036656;28;20032;-74
2021/06/01 06:38:46;;;;;;;7.20;3.33;;;;;;;;;;5037615;28;20022;-75
2021/06/01 06:41:13;;;;;;;11.30;3.60;;;;;;;;;;5031113;28;20029;-75
2021/06/01 06:43:40;;;;;;;7.18;3.70;;;;;;;;;;5029181;28;20458;-76
2021/06/01 06:46:11;;;;;;;5.90;3.47;;;;;;;;;;5048666;28;20155;-76
2021/06/01 06:48:36;;;;;;;5.43;3.00;;;;;;;;;;5041658;28;20032;-76
2021/06/01 06:51:12;;;;;;;10.90;3.88;;;;;;;;;;5027050;28;20030;-77
2021/06/01 06:53:37;;;;;;;9.30;3.60;;;;;;;;;;5014397;28;20053;-76
2021/06/01 06:56:03;;;;;;;7.13;3.47;;;;;;;;;;5027675;28;20018;-76
2021/06/01 06:58:28;;;;;;;6.97;3.38;;;;;;;;;;5032153;28;20020;-76
2021/06/01 07:00:53;;;;;;;9.15;3.75;;;;;;;;;;5026232;28;20021;-77
2021/06/01 07:03:19;;;;;;;6.95;3.42;;;;;;;;;;5045465;28;20045;-77
2021/06/01 07:05:44;;;;;;;8.55;3.60;;;;;;;;;;5031449;28;20033;-77
2021/06/01 07:08:09;;;;;;;8.40;3.70;;;;;;;;;;5023061;28;20155;-77
2021/06/01 07:10:34;;;;;;;6.53;2.72;;;;;;;;;;5023466;28;20091;-75
2021/06/01 07:13:01;;;;;;;5.07;2.65;;;;;;;;;;5033952;28;20049;-75
2021/06/01 07:15:30;;;;;;;6.68;2.60;;;;;;;;;;5030628;28;20025;-76
2021/06/01 07:17:57;;;;;;;6.03;2.60;;;;;;;;;;5027324;28;20029;-75
2021/06/01 07:20:25;;;;;;;7.00;2.75;;;;;;;;;;5021807;28;20041;-75
2021/06/01 07:22:50;;;;;;;5.15;2.65;;;;;;;;;;5029405;28;20053;-75
2021/06/01 07:25:16;;;;;;;4.78;2.40;;;;;;;;;;5040910;28;20099;-74
2021/06/01 07:27:42;;;;;;;6.50;3.08;;;;;;;;;;5032002;28;20025;-75
2021/06/01 07:30:10;;;;;;;6.45;2.40;;;;;;;;;;5041965;28;20031;-75
2021/06/01 07:32:38;;;;;;;5.55;2.78;;;;;;;;;;5032550;28;20100;-76
2021/06/01 07:35:03;;;;;;;5.85;2.47;;;;;;;;;;5032222;28;20394;-75
2021/06/01 07:37:29;;;;;;;4.22;2.30;;;;;;;;;;5029590;28;20032;-74
2021/06/01 07:39:54;;;;;;;5.75;2.20;;;;;;;;;;5031771;28;20020;-75
2021/06/01 07:42:19;;;;;;;5.00;2.63;;;;;;;;;;5030922;28;20025;-76
2021/06/01 07:44:45;;;;;;;4.88;2.20;;;;;;;;;;5030369;28;20025;-75
2021/06/01 07:47:10;;;;;;;5.82;2.33;;;;;;;;;;5030749;28;20036;-75
2021/06/01 07:49:35;;;;;;;3.60;1.85;;;;;;;;;;5031075;28;20021;-76
2021/06/01 07:52:01;;;;;;;5.13;2.25;;;;;;;;;;5034027;28;20033;-75
2021/06/01 07:54:26;;;;;;;6.18;2.25;;;;;;;;;;5026034;28;20041;-76
2021/06/01 07:56:52;;;;;;;6.05;2.30;;;;;;;;;;5025948;28;20049;-75
2021/06/01 07:59:17;;;;;;;3.80;1.70;;;;;;;;;;5046287;28;20523;-73
2021/06/01 08:01:43;;;;;;;5.63;2.15;;;;;;;;;;5039708;28;20500;-74
2021/06/01 08:04:09;;;;;;;5.63;2.50;;;;;;;;;;5031214;28;20382;-72
2021/06/01 08:06:36;;;;;;;5.57;2.15;;;;;;;;;;5026949;28;20026;-71
2021/06/01 08:09:03;;;;;;;5.00;2.50;;;;;;;;;;5014474;28;20053;-72
2021/06/01 08:11:28;;;;;;;4.38;2.35;;;;;;;;;;5013472;28;20022;-73
2021/06/01 08:13:53;;;;;;;6.28;2.70;;;;;;;;;;5017956;28;20041;-73
2021/06/01 08:16:19;;;;;;;4.85;2.38;;;;;;;;;;5023297;28;20379;-73
2021/06/01 08:18:58;;;;;;;5.63;2.40;;;;;;;;;;5021345;28;20481;-74
2021/06/01 08:21:36;;;;;;;5.65;2.17;;;;;;;;;;5027273;28;20473;-75
2021/06/01 08:24:01;;;;;;;6.82;1.88;;;;;;;;;;5019431;28;20097;-75
2021/06/01 08:26:26;;;;;;;3.42;1.80;;;;;;;;;;5017058;28;20109;-75
2021/06/01 08:28:52;;;;;;;4.22;1.90;;;;;;;;;;5020270;28;20386;-75
2021/06/01 08:31:17;;;;;;;3.70;1.95;;;;;;;;;;5027743;28;20521;-76
2021/06/01 08:33:42;;;;;;;3.60;1.90;;;;;;;;;;5030645;28;20017;-76
2021/06/01 08:36:08;;;;;;;4.47;1.75;;;;;;;;;;5029026;28;20025;-76
2021/06/01 08:38:33;;;;;;;4.45;1.83;;;;;;;;;;5030507;28;20025;-77
2021/06/01 08:40:58;;;;;;;3.72;1.50;;;;;;;;;;5024932;28;20123;-74
2021/06/01 08:43:26;;;;;;;4.00;1.60;;;;;;;;;;5022511;28;20025;-75
2021/06/01 08:45:56;;;;;;;3.08;1.45;;;;;;;;;;5026477;28;20029;-75
2021/06/01 08:48:21;;;;;;;5.10;1.55;;;;;;;;;;5019865;28;20033;-74
2021/06/01 08:50:48;;;;;;;4.35;1.48;;;;;;;;;;5010501;28;20140;-74
2021/06/01 08:53:14;;;;;;;3.75;1.40;;;;;;;;;;5010994;28;20026;-74
2021/06/01 08:55:39;;;;;;;3.92;1.30;;;;;;;;;;5013806;28;20366;-75
2021/06/01 08:58:05;;;;;;;4.78;1.20;;;;;;;;;;5013094;28;20418;-76
2021/06/01 09:00:31;;;;;;;4.53;1.30;;;;;;;;;;5019321;28;20026;-75
2021/06/01 09:03:31;;;;;;;4.57;1.42;;;;;;;;;;5028111;28;20068;-75
2021/06/01 09:06:37;;;;;;;5.25;1.20;;;;;;;;;;4949787;28;20098;-76
2021/06/01 09:09:23;;;;;;;4.20;1.05;;;;;;;;;;4957040;28;20027;-76
2021/06/01 09:12:01;;;;;;;2.88;1.27;;;;;;;;;;4951126;28;20461;-76
2021/06/01 09:14:56;;;;;;;2.97;1.40;;;;;;;;;;4950498;28;20090;-75
2021/06/01 09:22:57;;;;;;;5.60;1.13;;;;;;;;;;4946830;28;20079;-75
2021/06/01 09:28:17;;;;;;;3.05;1.35;;;;;;;;;;4948441;28;20027;-73
2021/06/01 09:30:54;;;;;;;2.92;1.30;;;;;;;;;;4950747;28;20823;-73
2021/06/01 09:33:29;;;;;;;4.13;1.40;;;;;;;;;;4937199;28;20606;-73
2021/06/01 09:35:59;;;;;;;2.72;1.40;;;;;;;;;;4946035;28;20051;-74
2021/06/01 09:38:27;;;;;;;2.63;1.10;;;;;;;;;;4950062;28;20042;-74
2021/06/01 09:41:21;;;;;;;3.08;1.25;;;;;;;;;;5016131;28;20068;-75
2021/06/01 09:43:51;;;;;;;3.65;1.33;;;;;;;;;;4964807;28;20125;-75
2021/06/01 09:46:26;;;;;;;6.18;1.50;;;;;;;;;;4968819;28;20047;-74
2021/06/01 09:48:52;;;;;;;3.33;1.30;;;;;;;;;;4963259;28;20045;-72
2021/06/01 09:51:34;;;;;;;3.80;1.60;;;;;;;;;;4964703;28;20035;-72
2021/06/01 09:54:18;;;;;;;7.18;1.60;;;;;;;;;;4967860;28;20073;-72
2021/06/01 09:56:43;;;;;;;4.43;1.42;;;;;;;;;;4972309;28;20518;-72
2021/06/01 09:59:09;;;;;;;3.75;1.48;;;;;;;;;;4979771;28;20015;-71
2021/06/01 10:01:34;;;;;;;3.95;1.40;;;;;;;;;;4971789;28;20083;-72
2021/06/01 10:04:03;;;;;;;3.78;1.65;;;;;;;;;;4990637;28;20056;-71
2021/06/01 10:06:34;;;;;;;4.57;1.42;;;;;;;;;;4991234;28;20062;-71
2021/06/01 10:09:09;;;;;;;4.22;1.80;;;;;;;;;;4991297;28;20117;-71
2021/06/01 10:11:34;;;;;;;3.55;1.50;;;;;;;;;;4990555;28;21076;-70
2021/06/01 10:13:59;;;;;;;4.75;1.85;;;;;;;;;;4990945;28;20117;-69
2021/06/01 10:16:25;;;;;;;3.85;1.75;;;;;;;;;;4989729;28;20030;-69
2021/06/01 10:18:50;;;;;;;4.25;1.55;;;;;;;;;;4990392;28;20022;-69
2021/06/01 10:21:19;;;;;;;3.50;1.40;;;;;;;;;;5036292;28;20029;-70
2021/06/01 10:23:47;;;;;;;3.70;1.30;;;;;;;;;;5033825;28;20080;-69
2021/06/01 10:26:13;;;;;;;4.72;1.60;;;;;;;;;;5026942;28;20022;-70
2021/06/01 10:28:41;;;;;;;4.72;1.42;;;;;;;;;;5029212;28;20025;-70
2021/06/01 10:31:08;;;;;;;3.47;1.55;;;;;;;;;;5033221;28;20116;-69
2021/06/01 10:33:37;;;;;;;3.38;1.50;;;;;;;;;;5025429;28;20018;-69
2021/06/01 10:36:17;;;;;;;4.32;1.55;;;;;;;;;;5032043;28;20057;-69
2021/06/01 10:53:19;;;;;;;3.97;1.60;;;;;;;;;;4932888;29;20047;-69
2021/06/01 10:56:11;;;;;;;4.38;1.80;;;;;;;;;;4934758;29;20066;-68
2021/06/01 10:59:05;;;;;;;6.18;1.95;;;;;;;;;;4933010;29;20508;-68
2021/06/01 11:04:29;;;;;;;4.70;1.80;;;;;;;;;;4939157;29;20564;-67
2021/06/01 11:07:14;;;;;;;4.85;1.90;;;;;;;;;;4931217;29;20023;-67
2021/06/01 11:09:45;;;;;;;3.83;1.67;;;;;;;;;;4933336;29;20046;-68
2021/06/01 11:12:33;;;;;;;3.13;1.60;;;;;;;;;;4939234;29;20046;-68
2021/06/01 11:14:58;;;;;;;4.82;1.90;;;;;;;;;;4937041;29;20028;-68
2021/06/01 11:17:33;;;;;;;3.75;1.80;;;;;;;;;;4941564;29;20042;-67
2021/06/01 11:20:12;;;;;;;3.13;1.60;;;;;;;;;;4930451;29;20015;-68
2021/06/01 11:22:44;;;;;;;4.20;1.60;;;;;;;;;;4986354;28;20498;-68
2021/06/01 11:33:39;;;;;;;5.13;1.83;;;;;;;;;;5031963;28;20494;-67
2021/06/01 11:36:06;;;;;;;4.13;2.00;;;;;;;;;;5031363;28;20105;-67
2021/06/01 11:44:17;;;;;;;3.55;1.40;;;;;;;;;;4920103;29;20062;-67
2021/06/01 11:47:08;;;;;;;2.55;1.42;;;;;;;;;;4938681;29;20392;-67
2021/06/01 11:52:25;;;;;;;3.15;1.50;;;;;;;;;;4935182;29;20043;-67
2021/06/01 11:54:50;;;;;;;3.40;1.75;;;;;;;;;;4932099;29;20035;-67
2021/06/01 12:02:00;;;;;;;3.00;1.50;;;;;;;;;;4935616;29;20456;-67
2021/06/01 12:03:01;;;;;;;4.00;1.50;;;;;;;;;;4931260;29;20051;-67
2021/06/01 12:11:31;;;;;;;6.68;1.60;;;;;;;;;;4944784;28;20041;-67
2021/06/01 12:14:12;;;;;;;2.90;1.35;;;;;;;;;;4931137;29;20016;-67
2021/06/01 12:19:22;;;;;;;3.70;1.50;;;;;;;;;;5018290;28;20027;-67
2021/06/01 12:21:50;;;;;;;3.95;1.60;;;;;;;;;;5034678;28;20056;-67
2021/06/01 12:24:22;;;;;;;4.20;1.70;;;;;;;;;;5021202;28;20536;-66
2021/06/01 12:32:26;;;;;;;3.88;1.80;;;;;;;;;;5030661;28;20044;-67
2021/06/01 12:35:09;;;;;;;3.88;1.48;;;;;;;;;;5031121;28;20119;-67
2021/06/01 12:46:08;;;;;;;3.17;1.48;;;;;;;;;;5018579;28;20200;-66
2021/06/01 13:12:03;;;;;;;4.22;1.40;;;;;;;;;;4934485;28;20036;-67
2021/06/01 13:21:01;;;;;;;3.50;1.40;;;;;;;;;;4961254;28;20073;-66
2021/06/01 13:23:57;;;;;;;3.95;1.65;;;;;;;;;;4962808;28;20776;-66
2021/06/01 13:32:25;;;;;;;3.22;1.50;;;;;;;;;;4988685;28;20410;-66
2021/06/01 13:37:53;;;;;;;6.50;1.55;;;;;;;;;;4976231;28;20050;-66
2021/06/01 13:46:11;;;;;;;3.83;1.70;;;;;;;;;;4963420;28;20029;-66
2021/06/01 13:52:17;;;;;;;3.80;1.60;;;;;;;;;;5023670;28;20041;-65
2021/06/01 13:56:59;;;;;;;4.75;1.70;;;;;;;;;;5033522;28;20040;-65
2021/06/01 13:59:49;;;;;;;3.60;1.45;;;;;;;;;;5029590;28;20037;-65
2021/06/01 14:10:55;;;;;;;5.22;1.70;;;;;;;;;;5032122;28;20232;-65
2021/06/01 14:30:32;;;;;;;2.88;1.60;;;;;;;;;;4947508;28;20050;-65
2021/06/01 14:39:05;;;;;;;3.65;1.65;;;;;;;;;;4890306;29;20037;-65
2021/06/01 15:31:35;;;;;;;3.90;2.08;;;;;;;;;;4865441;29;20041;-66
2021/06/01 15:47:51;;;;;;;3.95;2.00;;;;;;;;;;4867297;29;20052;-66
2021/06/01 15:50:36;;;;;;;4.90;2.17;;;;;;;;;;4870854;29;20543;-65
2021/06/01 16:13:29;;;;;;;4.00;2.10;;;;;;;;;;4939847;29;20058;-65
2021/06/01 16:21:32;;;;;;;4.72;2.10;;;;;;;;;;4935668;28;20090;-65
2021/06/01 16:32:40;;;;;;;3.75;2.00;;;;;;;;;;4940462;29;20027;-65
2021/06/01 16:43:48;;;;;;;5.75;2.17;;;;;;;;;;4968423;28;20105;-65
2021/06/01 17:08:59;;;;;;;4.80;2.20;;;;;;;;;;4979116;28;20034;-66
2021/06/01 17:11:28;;;;;;;4.28;2.00;;;;;;;;;;5000412;28;20034;-66
2021/06/01 17:13:56;;;;;;;7.57;2.20;;;;;;;;;;5034108;28;20031;-66
2021/06/01 17:16:34;;;;;;;4.95;2.25;;;;;;;;;;5032545;28;20025;-66
2021/06/01 17:36:00;;;;;;;5.05;1.80;;;;;;;;;;4913316;29;20570;-65
2021/06/01 17:38:26;;;;;;;4.95;2.50;;;;;;;;;;4914667;29;20033;-65
2021/06/01 17:40:57;;;;;;;3.90;2.00;;;;;;;;;;4911652;29;20080;-65
2021/06/01 17:43:26;;;;;;;5.30;1.80;;;;;;;;;;4914799;29;20103;-65
2021/06/01 17:45:53;;;;;;;4.07;2.10;;;;;;;;;;4913462;29;20028;-66
2021/06/01 17:48:38;;;;;;;3.75;1.83;;;;;;;;;;4915051;29;20028;-65
2021/06/01 17:51:07;;;;;;;3.45;1.75;;;;;;;;;;4908865;29;20036;-65
2021/06/01 17:53:42;;;;;;;4.30;2.20;;;;;;;;;;4907655;29;20035;-66
2021/06/01 17:56:08;;;;;;;4.32;1.90;;;;;;;;;;4908372;29;20043;-66
2021/06/01 17:58:34;;;;;;;4.72;1.90;;;;;;;;;;4904094;29;20107;-66
2021/06/01 18:01:00;;;;;;;4.78;1.98;;;;;;;;;;4932848;28;20031;-66
2021/06/01 18:03:26;;;;;;;3.45;1.70;;;;;;;;;;4997915;28;20505;-66
2021/06/01 18:05:51;;;;;;;4.80;2.22;;;;;;;;;;5048879;28;20049;-66
2021/06/01 18:36:36;;;;;;;5.38;2.78;;;;;;;;;;4926081;29;20031;-66
2021/06/01 18:42:11;;;;;;;5.15;2.40;;;;;;;;;;4924531;29;20039;-66
2021/06/01 19:29:50;;;;;;;5.35;2.40;;;;;;;;;;4912171;29;20048;-67
2021/06/01 19:51:33;;;;;;;5.20;2.70;;;;;;;;;;5011090;28;20592;-69
2021/06/01 19:53:58;;;;;;;8.87;2.90;;;;;;;;;;5011524;28;20026;-69
2021/06/01 19:56:24;;;;;;;6.33;2.97;;;;;;;;;;5011717;28;20081;-69
2021/06/01 19:58:49;;;;;;;8.30;2.90;;;;;;;;;;5022565;28;20444;-69
2021/06/01 20:01:14;;;;;;;5.63;2.87;;;;;;;;;;5023734;28;20025;-69
2021/06/01 20:03:40;;;;;;;6.10;2.70;;;;;;;;;;5026993;28;20054;-69
2021/06/01 20:06:08;;;;;;;6.60;2.80;;;;;;;;;;5030954;28;20109;-69
2021/06/01 20:08:34;;;;;;;9.43;3.30;;;;;;;;;;5031566;28;20105;-69
2021/06/01 20:10:59;;;;;;;11.37;3.20;;;;;;;;;;5038292;28;20116;-69
2021/06/01 20:13:25;;;;;;;8.13;2.90;;;;;;;;;;5030798;28;20013;-69
2021/06/01 20:15:51;;;;;;;8.10;3.07;;;;;;;;;;5030569;28;20076;-69
2021/06/01 20:18:19;;;;;;;9.10;3.30;;;;;;;;;;5031169;28;20016;-68
2021/06/01 20:20:47;;;;;;;6.57;2.97;;;;;;;;;;5030709;28;20030;-68
2021/06/01 20:23:13;;;;;;;7.13;3.27;;;;;;;;;;5030794;28;20052;-67
2021/06/01 20:25:41;;;;;;;7.57;2.83;;;;;;;;;;5025786;28;20485;-67
2021/06/01 20:28:08;;;;;;;8.17;3.23;;;;;;;;;;5026486;28;20075;-67
2021/06/01 20:30:37;;;;;;;5.23;2.87;;;;;;;;;;5024806;28;20086;-67
2021/06/01 20:33:07;;;;;;;5.30;2.97;;;;;;;;;;5031344;28;20222;-68
2021/06/01 20:35:33;;;;;;;10.20;3.80;;;;;;;;;;5029628;28;20018;-67
2021/06/01 20:37:58;;;;;;;7.17;3.43;;;;;;;;;;5030177;28;20044;-68
2021/06/01 20:40:24;;;;;;;8.07;3.63;;;;;;;;;;5029862;28;20021;-67
2021/06/01 20:42:50;;;;;;;5.97;2.73;;;;;;;;;;5029477;28;20108;-67
2021/06/01 20:45:17;;;;;;;9.13;3.23;;;;;;;;;;5036900;28;20071;-67
2021/06/01 20:47:43;;;;;;;10.03;3.63;;;;;;;;;;5031239;28;20071;-68
2021/06/01 20:50:09;;;;;;;6.67;3.17;;;;;;;;;;5026092;28;20030;-67
2021/06/01 20:52:35;;;;;;;10.93;3.07;;;;;;;;;;5030825;28;20021;-65
2021/06/01 20:55:00;;;;;;;6.73;3.20;;;;;;;;;;5040748;28;20021;-65
2021/06/01 20:57:26;;;;;;;7.50;3.47;;;;;;;;;;5035383;28;20025;-65
2021/06/01 20:59:52;;;;;;;7.23;2.67;;;;;;;;;;5027286;28;20434;-65
2021/06/01 21:02:18;;;;;;;6.67;3.20;;;;;;;;;;5025583;28;20049;-65
2021/06/01 21:04:44;;;;;;;5.83;2.70;;;;;;;;;;5024866;28;20300;-65
2021/06/01 21:07:09;;;;;;;9.37;2.93;;;;;;;;;;5025972;28;20037;-65
2021/06/01 21:09:36;;;;;;;6.50;3.10;;;;;;;;;;5036360;28;20534;-65
2021/06/01 21:12:02;;;;;;;6.33;3.00;;;;;;;;;;5030176;28;20084;-65
2021/06/01 21:14:27;;;;;;;6.83;3.37;;;;;;;;;;5025584;28;20033;-65
2021/06/01 21:16:54;;;;;;;6.27;2.90;;;;;;;;;;5034234;28;20036;-65
2021/06/01 21:19:19;;;;;;;6.27;2.90;;;;;;;;;;5027006;28;20017;-65
2021/06/01 21:21:44;;;;;;;8.27;3.50;;;;;;;;;;5038429;28;20092;-65
2021/06/01 21:24:10;;;;;;;6.77;3.10;;;;;;;;;;5030097;28;20297;-65
2021/06/01 21:26:35;;;;;;;7.63;3.27;;;;;;;;;;5038349;28;20478;-67
2021/06/01 21:29:01;;;;;;;7.40;3.10;;;;;;;;;;5030420;28;20040;-68
2021/06/01 21:31:28;;;;;;;9.87;3.53;;;;;;;;;;5020679;28;20022;-67